»·PEaware :: N622SB S36-KORS

N622SB :: S36-KORS

FLIGHT INFORMATION

Flight Status: Arrived
Operator: Privately registered:
United States
More flights under this callsign
Pilot: Simon B. (27931)
Aircraft: BEECH AIRCRAFT BARON
(BE58)
More flights by this aircraft type
Origin: S36 Norman Grier Field
United States
Destination: KORS Orcas Island
United States
More flights between these airports :: More routes between these airports
Route:
File this flight plan on PilotEdge
Remarks:
Altitude:
(Current/Filed)
4,500ft
Speed:
(Current/Filed)
170kts
Departed: 06-Sep-20 07:34 PM
Arrived: 06-Sep-20 08:08 PM
Distance/Time
Traveled:
88nm/0:34
Distance/Time
To Go:
Arrived

Flight Plot

Page will automatically refresh every two minutes.

Flight plan parsing failed; only flown route is shown


Map Options




Map Legend


Flown Route
Filed Route
Departure Airport
Arrival Airport
Navaid (VOR, NDB)
Fix

Horizontal Profiles

Position Reports

Time Latitude Longitude Heading Altitude Ground
Speed
06-Sep-20 19:21 47.340595 -122.103208 73 474ft 0kts
06-Sep-20 19:22 47.340595 -122.103208 73 474ft 0kts
06-Sep-20 19:23 47.340595 -122.103208 73 474ft 0kts
06-Sep-20 19:24 47.340595 -122.103208 73 474ft 0kts
06-Sep-20 19:25 47.340595 -122.103208 73 474ft 0kts
06-Sep-20 19:26 47.340595 -122.103208 73 474ft 0kts
06-Sep-20 19:27 47.340595 -122.103208 73 474ft 0kts
06-Sep-20 19:28 47.340595 -122.103207 73 474ft 0kts
06-Sep-20 19:29 47.340595 -122.103207 73 474ft 0kts
06-Sep-20 19:29 47.340628 -122.103457 251 475ft 0kts
06-Sep-20 19:31 47.338038 -122.103493 170 477ft 22kts
06-Sep-20 19:32 47.333510 -122.102428 190 469ft 0kts
06-Sep-20 19:32 47.333211 -122.102384 192 469ft 0kts
06-Sep-20 19:33 47.336644 -122.103458 349 477ft 67kts
06-Sep-20 19:35 47.365026 -122.080364 55 1633ft 171kts
06-Sep-20 19:35 47.395114 -122.045106 21 2016ft 171kts
06-Sep-20 19:36 47.441602 -122.031382 8 2337ft 172kts
06-Sep-20 19:37 47.490038 -122.024962 359 2264ft 179kts
06-Sep-20 19:38 47.540226 -122.026301 353 2019ft 180kts
06-Sep-20 19:39 47.587043 -122.046632 355 2588ft 177kts
06-Sep-20 19:40 47.637075 -122.049656 356 3397ft 180kts
06-Sep-20 19:41 47.687560 -122.054560 352 4029ft 183kts
06-Sep-20 19:42 47.737556 -122.070753 342 4498ft 184kts
06-Sep-20 19:43 47.786578 -122.094903 338 4289ft 186kts
06-Sep-20 19:44 47.829094 -122.132808 318 4233ft 181kts
06-Sep-20 19:45 47.866635 -122.181097 318 4299ft 179kts
06-Sep-20 19:46 47.901661 -122.232924 297 4303ft 178kts
06-Sep-20 19:47 47.931046 -122.291352 315 4409ft 175kts
06-Sep-20 19:48 47.974799 -122.320476 344 4489ft 179kts
06-Sep-20 19:49 48.021618 -122.345784 337 4499ft 179kts
06-Sep-20 19:50 48.068054 -122.373632 337 4500ft 180kts
06-Sep-20 19:51 48.114572 -122.401529 337 4500ft 180kts
06-Sep-20 19:52 48.160575 -122.431155 331 4501ft 180kts
06-Sep-20 19:53 48.204860 -122.466254 331 4504ft 180kts
06-Sep-20 19:54 48.249156 -122.501376 331 4504ft 180kts
06-Sep-20 19:55 48.293370 -122.536356 331 4507ft 180kts
06-Sep-20 19:56 48.337508 -122.571249 331 4510ft 179kts
06-Sep-20 19:57 48.381772 -122.606224 331 4510ft 179kts
06-Sep-20 19:58 48.424825 -122.644548 327 4512ft 179kts
06-Sep-20 19:59 48.464917 -122.687527 322 4508ft 179kts
06-Sep-20 20:00 48.498775 -122.741613 308 4461ft 177kts
06-Sep-20 20:01 48.526990 -122.798525 306 3774ft 177kts
06-Sep-20 20:02 48.563367 -122.843622 332 2645ft 164kts
06-Sep-20 20:03 48.603215 -122.864623 340 1676ft 131kts
06-Sep-20 20:04 48.635272 -122.889268 324 1426ft 131kts
06-Sep-20 20:05 48.666678 -122.910960 359 1029ft 104kts
06-Sep-20 20:06 48.693541 -122.910785 359 353ft 95kts
06-Sep-20 20:07 48.709363 -122.910585 358 23ft 9kts
06-Sep-20 20:08 48.707504 -122.909972 180 29ft 18kts
06-Sep-20 20:09 48.706316 -122.909348 88 30ft 0kts
06-Sep-20 20:10 48.706316 -122.909348 88 30ft 0kts

Navigation Log

Ident Type
Flight plan parsing failed, navigation log unavailable